Time;durP1;ratioP1;P1;durP2;ratioP2;P2;SDS_P1;SDS_P2;PMS_P1;PMS_P2;Temp;Humidity;BMP_temperature;BMP_pressure;BME280_temperature;BME280_humidity;BME280_pressure;Samples;Min_cycle;Max_cycle;Signal;HPM_P1;HPM_P2
2023/07/21 00:01:01;;;;;;;2.53;2.35;;;16.40;93.10;;;;;;4916742;29;20040;-81
2023/07/21 00:03:27;;;;;;;2.42;2.22;;;16.30;93.20;;;;;;4928419;29;20028;-81
2023/07/21 00:05:52;;;;;;;3.58;2.40;;;16.30;93.60;;;;;;4915833;29;20033;-80
2023/07/21 00:08:18;;;;;;;2.50;2.30;;;16.20;94.20;;;;;;4914041;29;20036;-79
2023/07/21 00:10:44;;;;;;;2.70;2.22;;;16.20;94.20;;;;;;4916482;29;20123;-80
2023/07/21 00:13:11;;;;;;;2.90;2.65;;;16.10;94.20;;;;;;4914504;29;20134;-80
2023/07/21 00:15:37;;;;;;;2.97;2.55;;;16.10;94.40;;;;;;4914371;29;20035;-77
2023/07/21 00:18:03;;;;;;;3.65;2.60;;;16.10;94.40;;;;;;4910629;29;20040;-79
2023/07/21 00:20:29;;;;;;;3.10;2.65;;;16.10;94.50;;;;;;4927656;29;20036;-82
2023/07/21 00:22:55;;;;;;;2.83;2.17;;;16.10;94.60;;;;;;4916725;29;20099;-80
2023/07/21 00:25:21;;;;;;;3.08;2.78;;;16.10;95.00;;;;;;4926158;29;20079;-80
2023/07/21 00:27:47;;;;;;;2.90;2.42;;;16.10;94.90;;;;;;4915055;29;20050;-81
2023/07/21 00:30:13;;;;;;;2.63;2.30;;;16.20;95.00;;;;;;4929186;29;20565;-80
2023/07/21 00:32:41;;;;;;;4.03;2.35;;;16.20;95.00;;;;;;4915869;29;20028;-79
2023/07/21 00:35:08;;;;;;;5.18;2.58;;;16.20;95.20;;;;;;4912407;29;20052;-79
2023/07/21 00:37:35;;;;;;;4.30;2.53;;;16.20;95.30;;;;;;4918764;29;20040;-79
2023/07/21 00:40:04;;;;;;;2.28;2.08;;;16.20;95.10;;;;;;4928771;29;20043;-79
2023/07/21 00:42:30;;;;;;;2.42;2.22;;;16.20;95.40;;;;;;4936476;29;20050;-80
2023/07/21 00:44:56;;;;;;;2.20;2.00;;;16.30;95.50;;;;;;4916737;29;20035;-81
2023/07/21 00:47:24;;;;;;;2.47;2.28;;;16.30;95.50;;;;;;4917040;29;20399;-78
2023/07/21 00:49:50;;;;;;;2.67;2.47;;;16.30;95.30;;;;;;4928457;29;20036;-79
2023/07/21 00:52:18;;;;;;;2.67;2.15;;;16.30;95.00;;;;;;4914338;29;20078;-81
2023/07/21 00:54:45;;;;;;;2.63;2.42;;;16.20;94.40;;;;;;4926430;29;20040;-79
2023/07/21 00:57:11;;;;;;;3.00;2.00;;;16.20;94.20;;;;;;4916613;29;20036;-80
2023/07/21 00:59:38;;;;;;;2.78;2.58;;;16.20;94.20;;;;;;4925721;29;20037;-79
2023/07/21 01:02:05;;;;;;;2.70;2.50;;;16.30;94.40;;;;;;4924074;29;20482;-80
2023/07/21 01:04:31;;;;;;;2.53;2.33;;;16.30;94.40;;;;;;4928369;29;20454;-79
2023/07/21 01:06:58;;;;;;;2.72;2.40;;;16.30;94.40;;;;;;4913947;29;20450;-80
2023/07/21 01:09:26;;;;;;;5.85;2.33;;;16.40;94.60;;;;;;4924431;29;20111;-78
2023/07/21 01:11:54;;;;;;;2.90;2.63;;;16.30;94.70;;;;;;4917212;29;20063;-78
2023/07/21 01:14:20;;;;;;;2.95;2.55;;;16.30;94.60;;;;;;4916970;29;20032;-77
2023/07/21 01:16:47;;;;;;;2.30;2.13;;;16.30;94.60;;;;;;4918770;29;20029;-81
2023/07/21 01:19:15;;;;;;;2.58;2.25;;;16.30;95.10;;;;;;4916065;29;20127;-79
2023/07/21 01:21:48;;;;;;;3.78;2.40;;;16.30;95.20;;;;;;4931144;29;20091;-80
2023/07/21 01:24:31;;;;;;;4.55;2.50;;;16.20;94.90;;;;;;4915956;29;20024;-81
2023/07/21 01:26:57;;;;;;;2.40;2.20;;;16.20;95.90;;;;;;4920072;29;20119;-79
2023/07/21 01:29:24;;;;;;;2.60;2.40;;;16.20;96.20;;;;;;4911040;29;20024;-78
2023/07/21 01:31:52;;;;;;;2.20;2.00;;;16.30;96.30;;;;;;4917956;29;20024;-81
2023/07/21 01:34:18;;;;;;;2.70;2.50;;;16.20;96.00;;;;;;4914951;29;20036;-81
2023/07/21 01:36:44;;;;;;;4.60;2.40;;;16.20;95.60;;;;;;4935882;29;20043;-81
2023/07/21 01:39:11;;;;;;;2.63;2.13;;;16.20;95.90;;;;;;4930073;29;20536;-79
2023/07/21 01:41:37;;;;;;;2.38;2.17;;;16.20;95.90;;;;;;4931035;29;20049;-81
2023/07/21 01:44:03;;;;;;;2.50;2.30;;;16.30;96.00;;;;;;4914914;29;20028;-79
2023/07/21 01:46:29;;;;;;;2.40;2.20;;;16.30;96.20;;;;;;4933814;29;20123;-77
2023/07/21 01:48:55;;;;;;;2.40;2.17;;;16.20;96.40;;;;;;4916458;29;20055;-78
2023/07/21 01:51:22;;;;;;;2.30;2.10;;;16.30;96.30;;;;;;4919140;29;20131;-80
2023/07/21 01:53:54;;;;;;;2.60;2.30;;;16.30;96.40;;;;;;4911542;29;20516;-80
2023/07/21 01:56:30;;;;;;;2.38;2.17;;;16.20;96.30;;;;;;4915371;29;20044;-80
2023/07/21 01:59:02;;;;;;;2.20;2.00;;;16.20;96.20;;;;;;4929976;29;20094;-79
2023/07/21 02:01:29;;;;;;;3.03;2.53;;;16.20;95.90;;;;;;4929123;29;20619;-80
2023/07/21 02:03:55;;;;;;;2.30;2.10;;;16.20;96.00;;;;;;4910955;29;20039;-80
2023/07/21 02:06:21;;;;;;;2.67;2.47;;;16.20;96.00;;;;;;4933202;29;20032;-78
2023/07/21 02:08:47;;;;;;;2.95;2.25;;;16.20;96.00;;;;;;4913397;29;20473;-79
2023/07/21 02:11:13;;;;;;;2.30;2.10;;;16.20;95.80;;;;;;4929963;29;20616;-77
2023/07/21 02:14:04;;;;;;;2.42;2.17;;;16.20;95.90;;;;;;4925456;29;20518;-79
2023/07/21 02:16:55;;;;;;;2.50;2.30;;;16.20;95.90;;;;;;4954692;23;20080;-84
2023/07/21 02:19:21;;;;;;;2.30;2.20;;;16.20;95.90;;;;;;4939237;28;20039;-87
2023/07/21 02:21:47;;;;;;;2.17;2.03;;;16.20;95.90;;;;;;4924489;29;20500;-88
2023/07/21 02:24:12;;;;;;;1.90;1.80;;;16.20;95.90;;;;;;4925245;29;21989;-85
2023/07/21 02:26:38;;;;;;;2.88;2.38;;;16.20;95.90;;;;;;4927485;29;20482;-87
2023/07/21 02:29:05;;;;;;;2.60;2.40;;;16.20;96.00;;;;;;4919186;29;20517;-87
2023/07/21 02:31:31;;;;;;;2.22;2.03;;;16.20;96.10;;;;;;4906570;29;20375;-86
2023/07/21 02:33:57;;;;;;;2.72;2.00;;;16.20;96.10;;;;;;4917579;29;20139;-87
2023/07/21 02:36:23;;;;;;;2.40;2.20;;;16.20;96.20;;;;;;4925367;29;20488;-86
2023/07/21 02:38:51;;;;;;;1.92;1.83;;;16.20;96.30;;;;;;4923950;29;20509;-87
2023/07/21 02:41:17;;;;;;;2.30;2.13;;;16.10;96.40;;;;;;4927176;29;20055;-88
2023/07/21 02:43:43;;;;;;;2.00;1.90;;;16.20;96.60;;;;;;4909803;29;20034;-85
2023/07/21 02:46:08;;;;;;;2.40;2.20;;;16.10;96.70;;;;;;4906922;29;20114;-85
2023/07/21 02:48:34;;;;;;;2.25;2.05;;;16.10;96.70;;;;;;4926980;29;20040;-85
2023/07/21 02:51:00;;;;;;;2.28;1.98;;;16.10;96.40;;;;;;4922908;29;20117;-85
2023/07/21 02:53:29;;;;;;;2.30;2.10;;;16.10;96.50;;;;;;4903267;29;20043;-86
2023/07/21 02:56:05;;;;;;;2.30;2.10;;;16.10;96.50;;;;;;4918988;29;20038;-85
2023/07/21 02:58:48;;;;;;;3.55;2.25;;;16.00;96.50;;;;;;4913192;29;20119;-87
2023/07/21 03:01:17;;;;;;;2.63;2.42;;;16.10;96.70;;;;;;4906702;29;20040;-86
2023/07/21 03:03:44;;;;;;;2.10;1.90;;;16.00;97.10;;;;;;4892181;29;20028;-86
2023/07/21 03:06:13;;;;;;;2.50;2.30;;;16.00;96.80;;;;;;4932323;29;20059;-87
2023/07/21 03:08:39;;;;;;;2.55;2.30;;;16.00;96.80;;;;;;4897954;29;20094;-87
2023/07/21 03:11:10;;;;;;;2.92;2.67;;;15.90;96.80;;;;;;4915951;29;20106;-87
2023/07/21 03:13:43;;;;;;;3.35;2.25;;;15.90;96.90;;;;;;4919496;29;20457;-86
2023/07/21 03:16:12;;;;;;;2.80;2.53;;;15.80;97.10;;;;;;4929033;29;20039;-86
2023/07/21 03:18:39;;;;;;;2.20;2.00;;;15.70;97.40;;;;;;4887161;29;20039;-86
2023/07/21 03:21:10;;;;;;;3.58;2.85;;;15.70;97.60;;;;;;4905958;29;20443;-85
2023/07/21 03:23:37;;;;;;;2.30;2.10;;;15.70;97.90;;;;;;4907480;29;20028;-86
2023/07/21 03:26:03;;;;;;;2.40;2.20;;;15.70;97.90;;;;;;4912791;29;20035;-86
2023/07/21 03:28:34;;;;;;;3.10;2.10;;;15.70;97.90;;;;;;4909677;29;20063;-86
2023/07/21 03:31:00;;;;;;;2.38;2.13;;;15.70;97.90;;;;;;4934768;29;20564;-86
2023/07/21 03:33:28;;;;;;;1.98;1.83;;;15.70;97.80;;;;;;4917594;29;20035;-84
2023/07/21 03:36:08;;;;;;;2.53;2.30;;;15.70;98.30;;;;;;4921920;29;20090;-84
2023/07/21 03:38:35;;;;;;;2.22;2.13;;;15.70;97.90;;;;;;4895026;29;20042;-84
2023/07/21 03:41:06;;;;;;;2.50;2.30;;;15.70;98.20;;;;;;4922687;29;20034;-85
2023/07/21 03:43:35;;;;;;;2.35;2.15;;;15.70;97.80;;;;;;4927401;29;20023;-84
2023/07/21 03:46:03;;;;;;;2.20;2.10;;;15.70;97.90;;;;;;4931744;29;20063;-84
2023/07/21 03:48:34;;;;;;;2.33;2.05;;;15.70;98.00;;;;;;4917109;29;20037;-85
2023/07/21 03:51:05;;;;;;;2.58;1.95;;;15.70;97.90;;;;;;4924763;29;20042;-84
2023/07/21 03:53:37;;;;;;;2.25;2.05;;;15.60;98.00;;;;;;4932721;29;20091;-85
2023/07/21 03:56:06;;;;;;;2.50;2.30;;;15.60;98.10;;;;;;4921290;29;20063;-85
2023/07/21 03:58:33;;;;;;;2.70;2.50;;;15.60;98.10;;;;;;4909019;29;20039;-84
2023/07/21 04:00:59;;;;;;;2.85;2.63;;;15.60;98.20;;;;;;4920972;29;20027;-85
2023/07/21 04:03:26;;;;;;;2.47;2.28;;;15.50;98.20;;;;;;4923175;29;20036;-84
2023/07/21 04:05:52;;;;;;;2.70;2.50;;;15.50;98.40;;;;;;4921028;29;20027;-84
2023/07/21 04:08:19;;;;;;;2.60;2.40;;;15.40;98.60;;;;;;4931324;29;20062;-84
2023/07/21 04:10:45;;;;;;;3.15;2.85;;;15.40;99.00;;;;;;4921078;29;20409;-85
2023/07/21 04:13:11;;;;;;;2.88;2.58;;;15.40;99.30;;;;;;4916183;29;20023;-84
2023/07/21 04:15:37;;;;;;;2.45;2.25;;;15.40;99.60;;;;;;4917282;29;20438;-84
2023/07/21 04:18:04;;;;;;;2.60;2.33;;;15.40;99.70;;;;;;4931319;29;20038;-84
2023/07/21 04:20:31;;;;;;;2.95;2.72;;;15.40;99.90;;;;;;4917791;29;20031;-84
2023/07/21 04:22:58;;;;;;;4.82;2.83;;;15.40;99.90;;;;;;4928589;29;20141;-83
2023/07/21 04:25:24;;;;;;;3.15;2.95;;;15.40;99.90;;;;;;4926312;29;20038;-85
2023/07/21 04:27:52;;;;;;;2.95;2.65;;;15.40;99.90;;;;;;4916947;29;20401;-83
2023/07/21 04:30:18;;;;;;;3.13;2.83;;;15.30;99.90;;;;;;4925525;29;20032;-85
2023/07/21 04:32:45;;;;;;;2.97;2.75;;;15.40;99.90;;;;;;4915946;29;20042;-85
2023/07/21 04:35:11;;;;;;;3.03;2.50;;;15.40;99.90;;;;;;4925235;29;20039;-86
2023/07/21 04:37:41;;;;;;;3.15;2.90;;;15.40;99.90;;;;;;4931494;29;20127;-85
2023/07/21 04:40:08;;;;;;;3.95;2.72;;;15.40;99.90;;;;;;4915619;29;20024;-86
2023/07/21 04:42:37;;;;;;;2.95;2.75;;;15.50;99.90;;;;;;4926732;29;20082;-84
2023/07/21 04:45:03;;;;;;;3.20;2.90;;;15.50;99.90;;;;;;4914456;29;20036;-84
2023/07/21 04:47:30;;;;;;;2.97;2.75;;;15.50;99.90;;;;;;4925178;29;20414;-86
2023/07/21 04:49:59;;;;;;;4.57;3.80;;;15.40;99.90;;;;;;4913987;29;20138;-84
2023/07/21 04:52:26;;;;;;;3.90;3.50;;;15.30;99.90;;;;;;4921275;29;20035;-85
2023/07/21 04:54:52;;;;;;;3.35;3.05;;;15.20;99.90;;;;;;4927994;29;20035;-86
2023/07/21 04:57:18;;;;;;;2.97;2.78;;;15.30;99.90;;;;;;4923113;29;20078;-86
2023/07/21 04:59:44;;;;;;;3.20;3.00;;;15.40;99.90;;;;;;4924211;29;20043;-85
2023/07/21 05:02:10;;;;;;;4.65;3.08;;;15.40;99.90;;;;;;4906213;29;20114;-86
2023/07/21 05:04:35;;;;;;;5.75;3.42;;;15.40;99.90;;;;;;4931227;29;20028;-84
2023/07/21 05:07:03;;;;;;;4.90;3.38;;;15.50;99.90;;;;;;4920175;29;20024;-86
2023/07/21 05:09:31;;;;;;;3.50;3.17;;;15.50;99.90;;;;;;4894445;29;20092;-84
2023/07/21 05:11:58;;;;;;;4.00;3.55;;;15.60;99.90;;;;;;4906554;29;20055;-86
2023/07/21 05:14:38;;;;;;;5.05;3.20;;;15.70;99.90;;;;;;4921357;29;20036;-85
2023/07/21 05:17:10;;;;;;;3.65;3.25;;;15.70;99.90;;;;;;4916270;29;20032;-86
2023/07/21 05:20:09;;;;;;;4.28;2.90;;;15.80;99.90;;;;;;4907947;29;20044;-85
2023/07/21 05:22:50;;;;;;;2.78;2.58;;;15.90;99.90;;;;;;4944026;29;20036;-86
2023/07/21 05:25:32;;;;;;;3.50;3.13;;;16.00;99.90;;;;;;4918236;29;20032;-87
2023/07/21 05:27:58;;;;;;;2.70;2.50;;;16.10;99.90;;;;;;4905365;29;20375;-86
2023/07/21 05:30:24;;;;;;;3.33;3.03;;;16.20;99.90;;;;;;4900520;29;20043;-85
2023/07/21 05:32:52;;;;;;;3.75;3.45;;;16.20;99.90;;;;;;4915308;29;20521;-86
2023/07/21 05:35:25;;;;;;;4.28;3.53;;;16.20;99.90;;;;;;4917933;29;20411;-85
2023/07/21 05:37:57;;;;;;;4.15;3.63;;;16.20;99.90;;;;;;4934171;29;20064;-85
2023/07/21 05:40:23;;;;;;;4.35;3.58;;;16.10;99.90;;;;;;4919304;29;20028;-87
2023/07/21 05:42:49;;;;;;;4.25;3.70;;;16.20;99.90;;;;;;4931656;29;20398;-86
2023/07/21 05:45:16;;;;;;;4.07;3.75;;;16.20;99.90;;;;;;4932155;29;20168;-84
2023/07/21 05:47:43;;;;;;;4.78;3.65;;;16.30;99.90;;;;;;4902861;29;20036;-85
2023/07/21 05:50:10;;;;;;;4.75;3.55;;;16.30;99.90;;;;;;4902543;29;20031;-85
2023/07/21 05:52:39;;;;;;;3.53;3.20;;;16.30;99.90;;;;;;4909495;29;20031;-86
2023/07/21 05:55:06;;;;;;;3.88;3.55;;;16.40;99.90;;;;;;4891665;29;20036;-84
2023/07/21 05:57:34;;;;;;;4.55;4.15;;;16.50;99.90;;;;;;4902924;29;20059;-83
2023/07/21 05:59:59;;;;;;;6.20;4.72;;;16.60;99.90;;;;;;4903395;29;20490;-84
2023/07/21 06:02:25;;;;;;;3.85;3.40;;;16.70;99.90;;;;;;4920177;29;20027;-84
2023/07/21 06:04:58;;;;;;;3.20;3.00;;;16.70;99.90;;;;;;4917698;29;20467;-84
2023/07/21 06:07:47;;;;;;;2.85;2.65;;;16.80;99.90;;;;;;4931591;29;20051;-84
2023/07/21 06:10:21;;;;;;;2.92;2.72;;;16.90;99.90;;;;;;4909711;29;20031;-84
2023/07/21 06:13:15;;;;;;;4.57;2.97;;;17.00;99.90;;;;;;4913308;29;20055;-85
2023/07/21 06:16:13;;;;;;;8.85;3.13;;;17.10;99.90;;;;;;4916160;29;20064;-85
2023/07/21 06:18:43;;;;;;;3.42;2.95;;;17.10;99.90;;;;;;4911692;29;20043;-84
2023/07/21 06:21:12;;;;;;;5.15;3.00;;;17.00;99.90;;;;;;4935477;29;20035;-85
2023/07/21 06:23:42;;;;;;;6.05;3.00;;;17.10;99.90;;;;;;4924820;29;20082;-86
2023/07/21 06:26:07;;;;;;;3.38;2.88;;;17.40;99.90;;;;;;4908221;29;20123;-85
2023/07/21 06:28:34;;;;;;;3.67;2.85;;;17.70;99.40;;;;;;4918247;29;20409;-84
2023/07/21 06:31:00;;;;;;;3.15;2.75;;;18.10;98.60;;;;;;4931348;29;20031;-84
2023/07/21 06:33:45;;;;;;;3.72;2.63;;;18.50;98.10;;;;;;4901210;29;20054;-85
2023/07/21 06:36:29;;;;;;;5.32;2.80;;;19.00;96.50;;;;;;4945751;28;20063;-86
2023/07/21 06:39:12;;;;;;;3.10;2.80;;;19.00;95.30;;;;;;4900205;29;20098;-85
2023/07/21 06:42:02;;;;;;;2.92;2.17;;;18.90;95.30;;;;;;4916993;29;20036;-85
2023/07/21 06:44:53;;;;;;;3.65;2.60;;;18.70;94.80;;;;;;4908931;29;20031;-85
2023/07/21 06:47:42;;;;;;;3.75;2.72;;;18.70;94.80;;;;;;4930541;29;20071;-84
2023/07/21 06:50:18;;;;;;;3.58;2.95;;;18.80;94.90;;;;;;4922253;29;20438;-84
2023/07/21 06:52:50;;;;;;;2.70;2.40;;;18.90;94.30;;;;;;4913908;29;20039;-84
2023/07/21 06:55:16;;;;;;;3.90;2.50;;;18.80;93.50;;;;;;4901400;29;20067;-85
2023/07/21 06:57:42;;;;;;;2.65;2.45;;;18.80;93.90;;;;;;4898698;29;20447;-85
2023/07/21 07:00:12;;;;;;;2.63;2.42;;;18.90;93.30;;;;;;4910024;29;20090;-85
2023/07/21 07:02:39;;;;;;;4.13;2.90;;;18.90;93.10;;;;;;4940004;29;20031;-85
2023/07/21 07:05:05;;;;;;;3.53;2.35;;;19.00;93.30;;;;;;4925469;29;20039;-84
2023/07/21 07:07:31;;;;;;;4.97;2.58;;;19.20;93.50;;;;;;4922337;29;20379;-84
2023/07/21 07:09:57;;;;;;;3.35;2.42;;;19.30;93.40;;;;;;4910157;29;20122;-86
2023/07/21 07:12:23;;;;;;;2.67;2.35;;;19.50;92.60;;;;;;4922244;29;20035;-86
2023/07/21 07:14:49;;;;;;;4.65;3.20;;;19.70;92.70;;;;;;4917920;29;20062;-86
2023/07/21 07:17:15;;;;;;;3.10;2.88;;;19.80;92.60;;;;;;4938977;29;20055;-84
2023/07/21 07:19:40;;;;;;;2.90;2.33;;;20.00;94.00;;;;;;4927126;29;20406;-87
2023/07/21 07:22:09;;;;;;;2.95;2.35;;;20.10;91.80;;;;;;4937521;29;20482;-86
2023/07/21 07:24:37;;;;;;;2.45;2.22;;;20.30;91.30;;;;;;4924976;29;20024;-86
2023/07/21 07:27:03;;;;;;;2.13;2.00;;;20.50;91.10;;;;;;4917516;29;20028;-86
2023/07/21 07:29:29;;;;;;;5.72;2.60;;;20.50;90.10;;;;;;4906119;29;20130;-84
2023/07/21 07:31:55;;;;;;;2.72;2.53;;;20.60;89.40;;;;;;4936223;28;20035;-84
2023/07/21 07:34:21;;;;;;;2.78;2.10;;;20.50;90.20;;;;;;4898362;29;20514;-85
2023/07/21 07:36:47;;;;;;;2.65;2.40;;;20.70;90.30;;;;;;4927514;29;20056;-85
2023/07/21 07:39:13;;;;;;;3.72;2.25;;;20.90;90.00;;;;;;4934291;29;20031;-86
2023/07/21 07:41:39;;;;;;;3.38;2.40;;;20.80;87.70;;;;;;4945424;29;20038;-87
2023/07/21 07:44:08;;;;;;;4.70;3.22;;;20.80;89.30;;;;;;4925251;29;20032;-85
2023/07/21 07:46:34;;;;;;;2.63;2.05;;;20.90;89.80;;;;;;4922699;29;20569;-87
2023/07/21 07:49:00;;;;;;;5.45;2.00;;;21.20;88.70;;;;;;4908466;29;20039;-87
2023/07/21 07:51:27;;;;;;;4.30;2.20;;;21.50;88.90;;;;;;4909513;29;20407;-85
2023/07/21 07:53:53;;;;;;;3.97;1.88;;;21.70;88.00;;;;;;4917055;29;20039;-86
2023/07/21 07:56:21;;;;;;;3.75;1.90;;;21.90;84.20;;;;;;4908845;29;20061;-86
2023/07/21 07:58:47;;;;;;;3.17;2.35;;;22.00;83.40;;;;;;4933042;29;20463;-86
2023/07/21 08:01:13;;;;;;;2.17;1.80;;;22.10;83.40;;;;;;4923888;29;20118;-86
2023/07/21 08:03:43;;;;;;;2.20;1.75;;;22.20;80.80;;;;;;4943620;29;20110;-86
2023/07/21 08:06:13;;;;;;;2.22;1.92;;;22.30;82.40;;;;;;4919554;29;20034;-85
2023/07/21 08:08:40;;;;;;;3.30;2.95;;;22.60;80.40;;;;;;4914013;29;20577;-86
2023/07/21 08:11:09;;;;;;;3.83;2.08;;;23.00;78.60;;;;;;4936148;28;20035;-88
2023/07/21 08:13:35;;;;;;;2.20;1.98;;;23.00;78.80;;;;;;4916442;29;20027;-88
2023/07/21 08:16:06;;;;;;;3.10;2.70;;;23.40;77.80;;;;;;4921067;29;20036;-86
2023/07/21 08:18:33;;;;;;;2.45;2.15;;;23.70;77.50;;;;;;4912842;29;20027;-86
2023/07/21 08:20:58;;;;;;;1.70;1.55;;;24.00;74.00;;;;;;4895809;29;20035;-87
2023/07/21 08:23:24;;;;;;;2.05;1.85;;;24.10;72.00;;;;;;4906144;29;20024;-86
2023/07/21 08:25:50;;;;;;;1.63;1.27;;;24.40;75.40;;;;;;4923471;29;20052;-86
2023/07/21 08:28:16;;;;;;;3.15;2.08;;;24.70;70.90;;;;;;4912233;29;20497;-89
2023/07/21 08:30:42;;;;;;;2.05;1.83;;;24.80;68.70;;;;;;4896788;29;20028;-88
2023/07/21 08:33:07;;;;;;;2.40;1.67;;;24.70;66.20;;;;;;4896332;29;20040;-88
2023/07/21 08:35:34;;;;;;;3.17;1.60;;;24.60;67.40;;;;;;4912350;29;20909;-88
2023/07/21 08:37:59;;;;;;;2.63;1.73;;;24.20;65.80;;;;;;4897967;29;20036;-88
2023/07/21 08:40:26;;;;;;;2.30;1.73;;;24.30;68.60;;;;;;4924935;29;20035;-89
2023/07/21 08:42:52;;;;;;;2.35;1.95;;;24.30;71.30;;;;;;4914248;29;20506;-88
2023/07/21 08:45:19;;;;;;;1.73;1.63;;;24.70;71.80;;;;;;4913867;29;20036;-89
2023/07/21 08:47:45;;;;;;;2.30;2.00;;;25.10;73.40;;;;;;4904091;29;20135;-89
2023/07/21 08:50:17;;;;;;;3.40;2.10;;;25.60;70.30;;;;;;4913498;29;20119;-87
2023/07/21 08:52:43;;;;;;;2.25;2.03;;;25.80;68.50;;;;;;4912580;29;20640;-87
2023/07/21 08:55:09;;;;;;;1.63;1.38;;;25.70;64.50;;;;;;4919313;29;20131;-87
2023/07/21 08:57:35;;;;;;;1.60;1.50;;;25.70;65.60;;;;;;4927193;29;20040;-87
2023/07/21 09:00:02;;;;;;;3.42;1.58;;;25.60;67.00;;;;;;4917537;29;20036;-86
2023/07/21 09:02:45;;;;;;;3.42;1.75;;;25.40;69.20;;;;;;4928450;29;20043;-86
2023/07/21 09:05:18;;;;;;;6.43;2.20;;;25.30;68.70;;;;;;4925130;29;20036;-87
2023/07/21 09:07:45;;;;;;;6.50;2.25;;;25.00;67.90;;;;;;4926121;29;20063;-88
2023/07/21 09:10:12;;;;;;;8.00;2.55;;;24.50;62.70;;;;;;4904400;29;20683;-88
2023/07/21 09:12:38;;;;;;;7.15;2.50;;;24.20;66.90;;;;;;4916179;29;20130;-87
2023/07/21 09:15:09;;;;;;;5.13;1.95;;;24.00;68.60;;;;;;4912915;29;20051;-87
2023/07/21 09:17:43;;;;;;;3.78;1.95;;;23.80;71.10;;;;;;4907378;29;20035;-87
2023/07/21 09:20:10;;;;;;;4.03;1.73;;;23.70;73.50;;;;;;4914262;29;20047;-89
2023/07/21 09:22:39;;;;;;;3.45;1.58;;;23.60;73.80;;;;;;4924940;29;20099;-88
2023/07/21 09:25:06;;;;;;;1.75;1.65;;;23.50;75.20;;;;;;4928271;29;20039;-87
2023/07/21 09:27:35;;;;;;;1.92;1.73;;;23.50;72.30;;;;;;4934138;29;20035;-87
2023/07/21 09:30:03;;;;;;;4.25;1.90;;;23.50;75.50;;;;;;4926946;29;20043;-86
2023/07/21 09:32:39;;;;;;;2.55;1.63;;;23.60;77.70;;;;;;4902794;29;20494;-86
2023/07/21 09:35:06;;;;;;;1.95;1.75;;;23.60;76.80;;;;;;4929768;29;20043;-87
2023/07/21 09:37:33;;;;;;;3.22;1.92;;;23.60;76.40;;;;;;4927147;29;20036;-87
2023/07/21 09:40:10;;;;;;;2.08;1.60;;;23.50;75.40;;;;;;4915471;29;20414;-86
2023/07/21 09:42:37;;;;;;;2.80;2.00;;;23.40;77.70;;;;;;4931900;29;20024;-87
2023/07/21 09:45:04;;;;;;;3.42;1.75;;;23.40;78.50;;;;;;4942429;28;20486;-85
2023/07/21 09:47:30;;;;;;;2.38;1.83;;;23.50;77.10;;;;;;4933078;29;20031;-85
2023/07/21 09:49:58;;;;;;;2.15;1.60;;;23.50;77.20;;;;;;4918460;29;20036;-87
2023/07/21 09:52:26;;;;;;;3.85;2.10;;;23.40;76.30;;;;;;4944961;29;20148;-88
2023/07/21 09:54:59;;;;;;;1.92;1.70;;;23.40;78.80;;;;;;4917572;29;20092;-88
2023/07/21 09:57:27;;;;;;;3.17;1.70;;;23.40;79.30;;;;;;4922771;29;20036;-87
2023/07/21 10:00:01;;;;;;;1.83;1.70;;;23.60;77.90;;;;;;4935047;29;20646;-88
2023/07/21 10:02:52;;;;;;;6.03;2.35;;;23.60;78.20;;;;;;4940361;29;20070;-88
2023/07/21 10:05:18;;;;;;;2.30;2.10;;;23.70;77.00;;;;;;4922858;29;20031;-87
2023/07/21 10:07:47;;;;;;;2.78;1.92;;;23.70;75.10;;;;;;4916420;29;20476;-87
2023/07/21 10:10:14;;;;;;;3.10;1.85;;;23.70;75.50;;;;;;4921456;29;20038;-87
2023/07/21 10:13:04;;;;;;;2.40;2.13;;;23.60;75.40;;;;;;4920757;29;20074;-87
2023/07/21 10:15:31;;;;;;;1.85;1.75;;;23.60;74.60;;;;;;4932288;29;20573;-87
2023/07/21 10:18:11;;;;;;;3.13;1.63;;;23.60;75.20;;;;;;4931573;29;20039;-86
2023/07/21 10:20:46;;;;;;;2.83;1.90;;;23.60;77.10;;;;;;4918524;29;20024;-87
2023/07/21 10:23:14;;;;;;;2.67;1.70;;;23.60;74.00;;;;;;4955753;28;20372;-85
2023/07/21 10:25:58;;;;;;;3.28;1.65;;;23.50;76.70;;;;;;4925044;29;20038;-87
2023/07/21 10:28:32;;;;;;;2.88;1.50;;;23.50;77.00;;;;;;4950641;28;20062;-86
2023/07/21 10:31:25;;;;;;;3.13;2.22;;;23.40;78.00;;;;;;4907709;29;20043;-86
2023/07/21 10:34:06;;;;;;;3.88;2.15;;;23.30;76.90;;;;;;4931433;29;20035;-87
2023/07/21 10:36:50;;;;;;;2.13;1.83;;;23.30;78.20;;;;;;4934018;28;20534;-85
2023/07/21 10:39:19;;;;;;;3.03;2.42;;;23.30;80.80;;;;;;4930360;29;20127;-87
2023/07/21 10:41:47;;;;;;;2.30;2.10;;;23.30;79.80;;;;;;4922758;29;20020;-86
2023/07/21 10:44:13;;;;;;;2.75;2.40;;;23.40;81.80;;;;;;4931995;29;20039;-87
2023/07/21 10:46:41;;;;;;;2.80;2.60;;;23.50;81.60;;;;;;4939366;29;20143;-87
2023/07/21 10:49:12;;;;;;;2.20;2.10;;;23.50;81.00;;;;;;4930359;29;20031;-86
2023/07/21 10:51:40;;;;;;;5.05;2.60;;;23.60;82.00;;;;;;4926330;29;20043;-86
2023/07/21 10:54:05;;;;;;;3.67;2.17;;;23.70;80.50;;;;;;4930918;29;20032;-88
2023/07/21 10:56:38;;;;;;;4.70;2.28;;;23.90;76.70;;;;;;4934722;29;20058;-88
2023/07/21 10:59:04;;;;;;;2.85;2.08;;;24.10;77.90;;;;;;4930657;29;20027;-88
2023/07/21 11:01:37;;;;;;;2.58;2.20;;;24.20;76.40;;;;;;4921487;29;20031;-87
2023/07/21 11:04:22;;;;;;;5.80;2.55;;;24.50;75.50;;;;;;4919843;29;20525;-87
2023/07/21 11:06:53;;;;;;;2.03;1.75;;;24.60;72.50;;;;;;4926748;29;20724;-88
2023/07/21 11:09:21;;;;;;;6.03;2.05;;;24.60;71.90;;;;;;4929838;28;20505;-87
2023/07/21 11:11:52;;;;;;;4.22;2.00;;;24.70;69.60;;;;;;4917750;29;20032;-86
2023/07/21 11:14:26;;;;;;;2.38;2.17;;;24.80;72.00;;;;;;4949222;29;20032;-87
2023/07/21 11:16:56;;;;;;;1.83;1.73;;;24.80;72.40;;;;;;4919293;29;20036;-88
2023/07/21 11:19:24;;;;;;;2.95;1.90;;;24.90;70.90;;;;;;4926225;29;20040;-88
2023/07/21 11:21:50;;;;;;;6.13;2.08;;;25.00;69.50;;;;;;4940538;29;20454;-88
2023/07/21 11:24:22;;;;;;;1.80;1.70;;;25.00;71.20;;;;;;4917743;29;20036;-89
2023/07/21 11:26:48;;;;;;;2.55;1.95;;;25.30;73.00;;;;;;4922609;29;20111;-88
2023/07/21 11:29:15;;;;;;;2.05;1.92;;;25.30;72.00;;;;;;4927689;29;20048;-88
2023/07/21 11:31:41;;;;;;;3.25;2.08;;;25.30;71.30;;;;;;4940631;29;20028;-88
2023/07/21 11:34:25;;;;;;;4.53;2.00;;;25.40;70.50;;;;;;4932682;29;20032;-87
2023/07/21 11:36:57;;;;;;;2.33;2.08;;;25.50;70.80;;;;;;4911706;29;20079;-88
2023/07/21 11:39:24;;;;;;;2.00;1.90;;;25.50;70.90;;;;;;4901540;29;20650;-86
2023/07/21 11:41:53;;;;;;;2.72;2.00;;;25.60;70.70;;;;;;4934924;29;20030;-87
2023/07/21 11:44:25;;;;;;;3.55;1.70;;;25.50;66.90;;;;;;4919440;29;20036;-89
2023/07/21 11:47:12;;;;;;;2.45;1.75;;;25.30;67.80;;;;;;4921982;29;20113;-86
2023/07/21 11:49:40;;;;;;;1.52;1.42;;;25.30;67.20;;;;;;4916628;29;20039;-87
2023/07/21 11:52:07;;;;;;;3.90;1.83;;;25.30;68.40;;;;;;4937374;29;20549;-87
2023/07/21 11:54:44;;;;;;;1.90;1.50;;;25.00;60.50;;;;;;4932046;29;20075;-88
2023/07/21 11:57:10;;;;;;;1.83;1.73;;;25.00;66.80;;;;;;4938599;29;20055;-88
2023/07/21 11:59:37;;;;;;;4.60;1.60;;;24.90;65.90;;;;;;4922824;29;20030;-87
2023/07/21 12:02:05;;;;;;;2.40;1.60;;;24.70;65.70;;;;;;4923541;29;20031;-85
2023/07/21 12:04:35;;;;;;;1.88;1.50;;;24.60;67.90;;;;;;4911839;29;20123;-88
2023/07/21 12:07:01;;;;;;;3.35;1.52;;;24.50;68.00;;;;;;4945515;29;20483;-87
2023/07/21 12:09:28;;;;;;;1.70;1.60;;;24.50;67.80;;;;;;4925738;29;20461;-87
2023/07/21 12:11:55;;;;;;;1.48;1.38;;;24.40;68.80;;;;;;4916068;29;20039;-87
2023/07/21 12:14:21;;;;;;;2.25;1.70;;;24.40;69.30;;;;;;4916350;29;20035;-87
2023/07/21 12:16:46;;;;;;;2.65;1.70;;;24.50;67.30;;;;;;4941305;29;20027;-88
2023/07/21 12:19:13;;;;;;;2.30;1.83;;;24.50;67.80;;;;;;4905395;29;20114;-87
2023/07/21 12:21:40;;;;;;;1.95;1.60;;;24.40;64.50;;;;;;4921264;29;20035;-87
2023/07/21 12:24:06;;;;;;;4.05;1.60;;;24.40;62.10;;;;;;4922667;29;20654;-87
2023/07/21 12:26:32;;;;;;;3.15;1.38;;;24.20;65.70;;;;;;4901254;29;20046;-86
2023/07/21 12:28:58;;;;;;;5.53;1.55;;;24.10;65.80;;;;;;4926561;29;20182;-86
2023/07/21 12:31:25;;;;;;;2.03;1.83;;;23.90;66.80;;;;;;4946286;29;20036;-87
2023/07/21 12:33:51;;;;;;;1.80;1.40;;;23.80;66.10;;;;;;4915669;29;20494;-87
2023/07/21 12:36:20;;;;;;;2.05;1.30;;;23.70;64.90;;;;;;4936983;29;20104;-87
2023/07/21 12:38:46;;;;;;;1.23;1.00;;;23.60;65.70;;;;;;4894790;29;20043;-86
2023/07/21 12:41:13;;;;;;;2.25;1.20;;;23.50;64.90;;;;;;4897774;29;20024;-87
2023/07/21 12:43:39;;;;;;;1.30;1.20;;;23.50;67.90;;;;;;4932237;29;20082;-87
2023/07/21 12:46:05;;;;;;;1.80;1.15;;;23.50;65.10;;;;;;4911110;29;20036;-87
2023/07/21 12:48:32;;;;;;;1.13;1.02;;;23.60;64.70;;;;;;4912690;29;20036;-87
2023/07/21 12:50:58;;;;;;;1.40;1.27;;;23.60;66.70;;;;;;4932626;29;20039;-88
2023/07/21 12:53:25;;;;;;;1.45;1.33;;;23.70;66.70;;;;;;4896367;29;20048;-86
2023/07/21 12:55:51;;;;;;;2.00;1.42;;;23.80;66.50;;;;;;4934205;28;20287;-87
2023/07/21 12:58:19;;;;;;;1.10;1.00;;;23.60;67.60;;;;;;4893673;29;20036;-88